createdAt,value
2022-11-08T00:01:54.829Z,3.15
2022-11-08T00:04:23.313Z,3.75
2022-11-08T00:07:08.466Z,4.25
2022-11-08T00:09:54.048Z,3.55
2022-11-08T00:12:39.293Z,3.40
2022-11-08T00:15:07.445Z,3.35
2022-11-08T00:17:34.465Z,2.58
2022-11-08T00:20:02.722Z,3.15
2022-11-08T00:22:31.323Z,2.97
2022-11-08T00:24:58.276Z,2.95
2022-11-08T00:27:25.841Z,3.58
2022-11-08T00:29:52.973Z,3.33
2022-11-08T00:32:22.054Z,3.33
2022-11-08T00:34:49.024Z,3.13
2022-11-08T00:37:18.822Z,3.72
2022-11-08T00:39:45.927Z,3.58
2022-11-08T00:42:12.879Z,3.38
2022-11-08T00:44:39.669Z,3.42
2022-11-08T00:47:06.535Z,3.42
2022-11-08T00:49:33.746Z,3.03
2022-11-08T00:52:00.519Z,3.53
2022-11-08T00:54:28.687Z,3.28
2022-11-08T00:56:55.461Z,2.63
2022-11-08T00:59:22.248Z,3.72
2022-11-08T01:01:49.207Z,3.70
2022-11-08T01:04:18.055Z,3.25
2022-11-08T01:06:45.431Z,3.05
2022-11-08T01:09:12.832Z,2.80
2022-11-08T01:11:45.326Z,3.95
2022-11-08T01:14:12.897Z,3.38
2022-11-08T01:16:39.692Z,3.10
2022-11-08T01:19:06.544Z,3.45
2022-11-08T01:21:33.315Z,3.35
2022-11-08T01:24:00.153Z,3.00
2022-11-08T01:26:28.747Z,2.88
2022-11-08T01:28:57.916Z,3.00
2022-11-08T01:31:27.160Z,3.65
2022-11-08T01:33:54.722Z,3.20
2022-11-08T01:36:23.351Z,2.78
2022-11-08T01:38:50.340Z,2.80
2022-11-08T01:41:19.296Z,2.70
2022-11-08T01:43:47.589Z,2.97
2022-11-08T01:46:33.048Z,2.65
2022-11-08T01:49:37.797Z,2.65
2022-11-08T01:54:47.271Z,2.38
2022-11-08T01:57:17.756Z,2.92
2022-11-08T01:59:46.994Z,2.70
2022-11-08T02:02:15.590Z,2.83
2022-11-08T02:04:43.846Z,2.60
2022-11-08T02:07:13.344Z,2.35
2022-11-08T02:09:43.141Z,2.25
2022-11-08T02:12:12.263Z,2.70
2022-11-08T02:14:39.370Z,2.45
2022-11-08T02:17:07.182Z,2.67
2022-11-08T02:19:39.832Z,2.70
2022-11-08T02:22:17.451Z,3.10
2022-11-08T02:24:46.182Z,2.30
2022-11-08T02:27:14.841Z,2.78
2022-11-08T02:29:41.659Z,2.65
2022-11-08T02:32:08.546Z,2.20
2022-11-08T02:34:39.153Z,2.63
2022-11-08T02:37:06.733Z,2.72
2022-11-08T02:39:34.307Z,2.47
2022-11-08T02:42:03.087Z,2.17
2022-11-08T02:44:29.949Z,2.85
2022-11-08T02:46:56.811Z,2.15
2022-11-08T02:49:23.663Z,2.30
2022-11-08T02:51:53.026Z,2.17
2022-11-08T02:54:19.882Z,2.00
2022-11-08T02:56:46.773Z,1.95
2022-11-08T02:59:14.946Z,2.60
2022-11-08T03:01:41.928Z,2.13
2022-11-08T03:04:08.811Z,2.38
2022-11-08T03:06:35.559Z,1.90
2022-11-08T03:09:02.358Z,2.28
2022-11-08T03:11:29.114Z,2.22
2022-11-08T03:13:56.012Z,2.13
2022-11-08T03:16:24.311Z,2.05
2022-11-08T03:18:51.674Z,2.30
2022-11-08T03:21:18.437Z,2.35
2022-11-08T03:23:45.252Z,2.20
2022-11-08T03:26:12.062Z,2.65
2022-11-08T03:28:38.966Z,2.75
2022-11-08T03:31:06.103Z,2.22
2022-11-08T03:33:34.275Z,2.63
2022-11-08T03:36:01.197Z,2.70
2022-11-08T03:38:28.065Z,2.40
2022-11-08T03:40:54.832Z,2.50
2022-11-08T03:43:21.625Z,2.13
2022-11-08T03:45:48.475Z,2.15
2022-11-08T03:48:15.475Z,2.30
2022-11-08T03:50:43.908Z,2.40
2022-11-08T03:53:10.735Z,2.88
2022-11-08T03:55:37.536Z,2.30
2022-11-08T03:58:04.409Z,2.72
2022-11-08T04:00:31.156Z,2.70
2022-11-08T04:03:03.189Z,2.35
2022-11-08T04:05:32.187Z,2.28
2022-11-08T04:08:01.140Z,3.00
2022-11-08T04:10:27.956Z,2.67
2022-11-08T04:13:13.199Z,2.78
2022-11-08T04:15:40.236Z,2.17
2022-11-08T04:18:25.457Z,2.03
2022-11-08T04:21:10.800Z,2.50
2022-11-08T04:23:39.181Z,2.05
2022-11-08T04:26:08.217Z,2.45
2022-11-08T04:28:39.248Z,2.97
2022-11-08T04:31:09.125Z,2.60
2022-11-08T04:33:36.257Z,2.83
2022-11-08T04:36:04.196Z,2.20
2022-11-08T04:38:31.361Z,2.30
2022-11-08T04:41:05.098Z,2.55
2022-11-08T04:43:32.770Z,2.53
2022-11-08T04:46:01.126Z,2.67
2022-11-08T04:48:27.970Z,2.47
2022-11-08T04:50:54.860Z,2.28
2022-11-08T04:53:22.002Z,2.42
2022-11-08T04:55:48.819Z,1.98
2022-11-08T04:58:17.426Z,2.53
2022-11-08T05:00:44.405Z,2.35
2022-11-08T05:03:11.145Z,3.10
2022-11-08T05:05:37.955Z,2.40
2022-11-08T05:08:05.355Z,1.92
2022-11-08T05:10:32.083Z,2.45
2022-11-08T05:12:58.873Z,2.03
2022-11-08T05:15:29.664Z,2.10
2022-11-08T05:17:56.493Z,2.63
2022-11-08T05:20:41.594Z,2.30
2022-11-08T05:23:25.381Z,2.85
2022-11-08T05:25:53.644Z,2.75
2022-11-08T05:28:21.087Z,2.13
2022-11-08T05:30:56.502Z,2.20
2022-11-08T05:33:24.146Z,2.60
2022-11-08T05:35:51.629Z,2.42
2022-11-08T05:38:18.813Z,2.25
2022-11-08T05:40:46.374Z,2.05
2022-11-08T05:43:13.412Z,2.42
2022-11-08T05:45:40.476Z,2.17
2022-11-08T05:48:08.730Z,2.50
2022-11-08T05:50:36.111Z,2.63
2022-11-08T05:53:03.108Z,2.20
2022-11-08T05:55:29.849Z,2.42
2022-11-08T05:57:56.660Z,2.03
2022-11-08T06:00:23.604Z,2.10
2022-11-08T06:02:50.487Z,2.08
2022-11-08T06:05:18.684Z,2.55
2022-11-08T06:07:45.992Z,2.08
2022-11-08T06:10:13.256Z,2.38
2022-11-08T06:12:40.344Z,2.13
2022-11-08T06:15:08.801Z,2.50
2022-11-08T06:17:35.955Z,2.45
2022-11-08T06:20:04.285Z,2.17
2022-11-08T06:22:32.914Z,2.15
2022-11-08T06:25:00.240Z,2.38
2022-11-08T06:27:27.336Z,2.33
2022-11-08T06:29:54.146Z,2.70
2022-11-08T06:32:21.089Z,1.80
2022-11-08T06:34:48.984Z,2.05
2022-11-08T06:37:16.362Z,2.10
2022-11-08T06:39:44.894Z,2.83
2022-11-08T06:42:11.947Z,2.83
2022-11-08T06:44:38.892Z,2.10
2022-11-08T06:47:05.741Z,2.30
2022-11-08T06:49:32.558Z,2.95
2022-11-08T06:51:59.432Z,2.75
2022-11-08T06:54:27.154Z,2.80
2022-11-08T06:56:55.938Z,2.17
2022-11-08T06:59:23.386Z,2.03
2022-11-08T07:01:50.260Z,2.85
2022-11-08T07:04:17.244Z,2.08
2022-11-08T07:06:44.044Z,2.15
2022-11-08T07:09:11.240Z,1.75
2022-11-08T07:11:38.179Z,2.60
2022-11-08T07:14:06.355Z,2.05
2022-11-08T07:16:33.156Z,1.40
2022-11-08T07:19:00.154Z,2.30
2022-11-08T07:21:26.891Z,2.03
2022-11-08T07:23:53.745Z,2.05
2022-11-08T07:26:20.569Z,1.80
2022-11-08T07:28:47.489Z,2.45
2022-11-08T07:31:15.693Z,1.65
2022-11-08T07:33:42.479Z,2.38
2022-11-08T07:36:09.517Z,2.00
2022-11-08T07:38:36.414Z,1.92
2022-11-08T07:41:03.422Z,1.70
2022-11-08T07:43:30.537Z,2.28
2022-11-08T07:45:59.495Z,2.20
2022-11-08T07:48:28.974Z,2.28
2022-11-08T07:50:56.109Z,2.13
2022-11-08T07:53:23.300Z,2.13
2022-11-08T07:55:50.177Z,2.90
2022-11-08T07:58:17.517Z,2.38
2022-11-08T08:00:45.307Z,2.08
2022-11-08T08:03:14.340Z,2.40
2022-11-08T08:05:44.092Z,1.83
2022-11-08T08:08:12.752Z,2.00
2022-11-08T08:10:40.549Z,2.55
2022-11-08T08:13:07.923Z,2.15
2022-11-08T08:15:34.777Z,2.33
2022-11-08T08:18:02.768Z,3.25
2022-11-08T08:20:30.415Z,1.95
2022-11-08T08:22:58.992Z,2.42
2022-11-08T08:25:26.417Z,2.33
2022-11-08T08:27:55.075Z,2.97
2022-11-08T08:30:22.309Z,2.13
2022-11-08T08:33:02.127Z,2.30
2022-11-08T08:35:37.543Z,1.85
2022-11-08T08:38:06.644Z,2.03
2022-11-08T08:40:34.200Z,2.20
2022-11-08T08:43:03.309Z,2.40
2022-11-08T08:45:31.144Z,1.77
2022-11-08T08:47:59.013Z,1.75
2022-11-08T08:50:27.024Z,2.47
2022-11-08T08:52:58.228Z,2.08
2022-11-08T08:55:26.616Z,1.95
2022-11-08T08:57:54.032Z,2.30
2022-11-08T09:03:11.438Z,2.47
2022-11-08T09:05:41.877Z,2.80
2022-11-08T09:08:08.721Z,1.88
2022-11-08T09:10:36.886Z,1.83
2022-11-08T09:13:04.253Z,2.75
2022-11-08T09:15:31.357Z,3.17
2022-11-08T09:17:58.622Z,3.28
2022-11-08T09:20:25.901Z,2.55
2022-11-08T09:22:52.706Z,2.65
2022-11-08T09:25:19.527Z,1.90
2022-11-08T09:27:47.623Z,2.15
2022-11-08T09:30:14.710Z,2.03
2022-11-08T09:35:29.085Z,2.00
2022-11-08T09:37:56.033Z,2.03
2022-11-08T09:40:30.348Z,2.15
2022-11-08T09:43:14.082Z,2.00
2022-11-08T09:45:45.569Z,1.83
2022-11-08T09:48:21.673Z,1.63
2022-11-08T09:50:52.160Z,2.10
2022-11-08T09:53:27.371Z,2.22
2022-11-08T09:55:59.206Z,1.88
2022-11-08T09:58:34.386Z,1.92
2022-11-08T10:01:01.534Z,2.20
2022-11-08T10:03:29.572Z,1.77
2022-11-08T10:06:28.340Z,2.15
2022-11-08T10:09:04.439Z,2.00
2022-11-08T10:11:57.442Z,2.22
2022-11-08T10:14:48.999Z,4.05
2022-11-08T10:17:34.451Z,2.60
2022-11-08T10:20:13.051Z,2.10
2022-11-08T10:22:49.163Z,4.82
2022-11-08T10:25:21.082Z,2.20
2022-11-08T10:27:47.996Z,2.03
2022-11-08T10:30:20.471Z,2.10
2022-11-08T10:32:51.727Z,1.80
2022-11-08T10:35:25.516Z,2.10
2022-11-08T10:40:26.505Z,2.60
2022-11-08T10:43:03.407Z,2.35
2022-11-08T10:45:34.954Z,2.25
2022-11-08T10:48:02.065Z,2.28
2022-11-08T10:50:39.937Z,2.53
2022-11-08T10:53:17.379Z,1.92
2022-11-08T10:55:50.162Z,2.00
2022-11-08T10:58:32.671Z,2.50
2022-11-08T11:01:03.410Z,2.17
2022-11-08T11:03:30.562Z,2.63
2022-11-08T11:06:02.356Z,1.95
2022-11-08T11:08:29.215Z,2.65
2022-11-08T11:10:56.478Z,2.38
2022-11-08T11:13:25.125Z,2.03
2022-11-08T11:15:58.551Z,2.42
2022-11-08T11:18:30.618Z,1.77
2022-11-08T11:21:07.961Z,1.75
2022-11-08T11:23:41.184Z,5.13
2022-11-08T11:26:13.803Z,2.60
2022-11-08T11:29:05.958Z,2.25
2022-11-08T11:31:35.093Z,2.60
2022-11-08T11:34:26.984Z,1.85
2022-11-08T11:36:59.828Z,2.20
2022-11-08T11:39:35.579Z,2.17
2022-11-08T11:42:31.194Z,2.15
2022-11-08T11:45:06.401Z,1.88
2022-11-08T11:47:41.286Z,1.80
2022-11-08T11:50:21.328Z,2.28
2022-11-08T11:52:48.476Z,2.20
2022-11-08T11:55:16.837Z,2.63
2022-11-08T11:57:58.979Z,2.00
2022-11-08T12:00:25.870Z,2.38
2022-11-08T12:03:22.451Z,2.30
2022-11-08T12:06:08.600Z,1.90
2022-11-08T12:08:54.202Z,2.05
2022-11-08T12:11:33.633Z,1.95
2022-11-08T12:14:19.152Z,1.88
2022-11-08T12:16:53.583Z,2.28
2022-11-08T12:19:30.575Z,2.08
2022-11-08T12:22:12.223Z,1.77
2022-11-08T12:24:49.658Z,2.08
2022-11-08T12:27:29.000Z,1.98
2022-11-08T12:30:03.637Z,2.33
2022-11-08T12:32:45.875Z,1.90
2022-11-08T12:35:26.482Z,2.10
2022-11-08T12:38:04.858Z,2.40
2022-11-08T12:40:41.266Z,1.90
2022-11-08T12:43:24.151Z,2.38
2022-11-08T12:45:57.629Z,1.40
2022-11-08T12:48:37.618Z,1.73
2022-11-08T12:51:09.513Z,1.98
2022-11-08T12:53:49.032Z,2.38
2022-11-08T12:56:19.643Z,2.58
2022-11-08T12:58:49.370Z,1.80
2022-11-08T13:01:18.663Z,1.80
2022-11-08T13:04:19.092Z,1.83
2022-11-08T13:06:52.512Z,1.83
2022-11-08T13:09:29.741Z,1.75
2022-11-08T13:12:06.124Z,1.73
2022-11-08T13:14:38.571Z,1.95
2022-11-08T13:17:20.499Z,2.08
2022-11-08T13:20:04.393Z,1.77
2022-11-08T13:22:57.605Z,2.53
2022-11-08T13:25:39.893Z,2.47
2022-11-08T13:28:35.854Z,4.38
2022-11-08T13:31:19.171Z,2.53
2022-11-08T13:34:16.883Z,1.98
2022-11-08T13:36:55.435Z,2.40
2022-11-08T13:39:49.572Z,2.20
2022-11-08T13:42:55.307Z,2.17
2022-11-08T13:45:29.437Z,2.20
2022-11-08T13:48:01.482Z,2.47
2022-11-08T13:50:48.943Z,2.45
2022-11-08T13:53:43.819Z,1.85
2022-11-08T13:56:43.706Z,2.53
2022-11-08T13:59:53.190Z,2.03
2022-11-08T14:02:37.715Z,2.58
2022-11-08T14:05:26.216Z,2.10
2022-11-08T14:08:16.437Z,2.35
2022-11-08T14:11:18.842Z,2.35
2022-11-08T14:14:06.117Z,2.22
2022-11-08T14:16:42.517Z,2.40
2022-11-08T14:19:22.429Z,2.33
2022-11-08T14:21:52.207Z,2.28
2022-11-08T14:24:23.243Z,2.00
2022-11-08T14:26:50.091Z,1.88
2022-11-08T14:29:17.728Z,2.10
2022-11-08T14:31:45.228Z,2.25
2022-11-08T14:34:32.276Z,2.53
2022-11-08T14:36:59.586Z,2.58
2022-11-08T14:39:30.083Z,2.08
2022-11-08T14:42:00.283Z,2.20
2022-11-08T14:44:27.598Z,2.03
2022-11-08T14:46:54.778Z,2.67
2022-11-08T14:49:29.317Z,2.75
2022-11-08T14:52:12.983Z,2.45
2022-11-08T14:54:42.195Z,2.28
2022-11-08T14:57:32.434Z,2.58
2022-11-08T15:00:01.683Z,2.65
2022-11-08T15:02:28.603Z,2.92
2022-11-08T15:04:55.578Z,2.30
2022-11-08T15:07:25.854Z,3.03
2022-11-08T15:09:53.344Z,2.08
2022-11-08T15:12:22.003Z,2.85
2022-11-08T15:14:54.171Z,2.20
2022-11-08T15:17:36.253Z,2.67
2022-11-08T15:20:07.386Z,2.10
2022-11-08T15:22:36.832Z,2.47
2022-11-08T15:25:29.540Z,2.33
2022-11-08T15:27:58.124Z,2.38
2022-11-08T15:30:36.607Z,2.40
2022-11-08T15:33:04.001Z,2.20
2022-11-08T15:35:34.011Z,2.53
2022-11-08T15:38:04.078Z,2.10
2022-11-08T15:40:32.987Z,2.90
2022-11-08T15:43:00.141Z,2.42
2022-11-08T15:45:32.134Z,2.33
2022-11-08T15:48:13.158Z,2.42
2022-11-08T15:50:40.037Z,2.53
2022-11-08T15:53:09.655Z,2.58
2022-11-08T15:55:39.346Z,3.10
2022-11-08T15:58:15.135Z,2.33
2022-11-08T16:00:45.981Z,2.75
2022-11-08T16:03:12.749Z,2.38
2022-11-08T16:05:39.523Z,2.40
2022-11-08T16:08:07.877Z,1.95
2022-11-08T16:10:38.403Z,2.50
2022-11-08T16:13:05.990Z,2.13
2022-11-08T16:15:34.909Z,2.75
2022-11-08T16:18:02.494Z,2.70
2022-11-08T16:20:30.731Z,2.33
2022-11-08T16:22:59.319Z,2.58
2022-11-08T16:25:30.020Z,2.45
2022-11-08T16:27:58.637Z,3.17
2022-11-08T16:30:26.961Z,2.63
2022-11-08T16:32:53.780Z,2.65
2022-11-08T16:35:20.861Z,3.08
2022-11-08T16:37:48.173Z,2.38
2022-11-08T16:40:17.705Z,3.20
2022-11-08T16:42:47.329Z,3.10
2022-11-08T16:45:15.010Z,2.15
2022-11-08T16:47:43.132Z,2.28
2022-11-08T16:50:16.785Z,1.98
2022-11-08T16:52:44.241Z,3.20
2022-11-08T16:55:17.737Z,2.30
2022-11-08T17:00:16.620Z,3.00
2022-11-08T17:02:46.769Z,3.10
2022-11-08T17:05:17.348Z,3.10
2022-11-08T17:07:44.257Z,4.47
2022-11-08T17:10:14.388Z,4.10
2022-11-08T17:12:41.133Z,6.32
2022-11-08T17:15:12.389Z,10.13
2022-11-08T17:17:39.454Z,24.00
2022-11-08T17:20:07.397Z,9.15
2022-11-08T17:22:34.234Z,16.40
2022-11-08T17:25:01.070Z,10.98
2022-11-08T17:27:27.970Z,24.42
2022-11-08T17:29:54.725Z,28.83
2022-11-08T17:32:22.859Z,45.38
2022-11-08T17:34:49.685Z,14.73
2022-11-08T17:37:16.903Z,67.25
2022-11-08T17:39:43.801Z,52.67
2022-11-08T17:42:10.664Z,38.70
2022-11-08T17:44:37.463Z,16.77
2022-11-08T17:47:04.521Z,20.25
2022-11-08T17:49:32.735Z,19.35
2022-11-08T17:51:59.523Z,16.33
2022-11-08T17:54:26.394Z,10.48
2022-11-08T17:56:53.495Z,12.27
2022-11-08T17:59:21.108Z,7.57
2022-11-08T18:01:48.020Z,6.07
2022-11-08T18:04:15.038Z,8.13
2022-11-08T18:06:43.461Z,5.82
2022-11-08T18:09:10.444Z,7.38
2022-11-08T18:11:37.396Z,3.13
2022-11-08T18:14:04.305Z,3.85
2022-11-08T18:16:31.979Z,2.97
2022-11-08T18:18:59.350Z,2.70
2022-11-08T18:21:26.127Z,3.38
2022-11-08T18:23:54.289Z,3.42
2022-11-08T18:26:21.090Z,2.80
2022-11-08T18:28:47.923Z,3.20
2022-11-08T18:31:17.380Z,2.95
2022-11-08T18:33:44.945Z,2.90
2022-11-08T18:36:15.551Z,2.55
2022-11-08T18:38:44.775Z,3.88
2022-11-08T18:41:15.449Z,3.28
2022-11-08T18:43:42.284Z,2.65
2022-11-08T18:46:11.997Z,2.85
2022-11-08T18:48:38.930Z,3.72
2022-11-08T18:51:08.883Z,3.60
2022-11-08T18:53:35.705Z,3.17
2022-11-08T18:56:02.912Z,3.42
2022-11-08T18:58:31.282Z,4.38
2022-11-08T19:00:58.643Z,3.17
2022-11-08T19:03:26.268Z,3.10
2022-11-08T19:05:53.595Z,3.60
2022-11-08T19:08:25.370Z,3.60
2022-11-08T19:10:53.471Z,3.15
2022-11-08T19:13:21.632Z,3.00
2022-11-08T19:15:57.195Z,5.25
2022-11-08T19:18:24.912Z,2.88
2022-11-08T19:20:56.115Z,3.67
2022-11-08T19:23:23.093Z,4.03
2022-11-08T19:25:55.157Z,3.28
2022-11-08T19:28:22.724Z,3.20
2022-11-08T19:30:50.842Z,4.43
2022-11-08T19:33:19.704Z,2.30
2022-11-08T19:35:46.674Z,2.08
2022-11-08T19:38:13.636Z,4.00
2022-11-08T19:40:40.740Z,3.35
2022-11-08T19:43:08.164Z,3.88
2022-11-08T19:45:35.059Z,2.47
2022-11-08T19:48:01.887Z,2.97
2022-11-08T19:50:30.290Z,2.80
2022-11-08T19:52:57.110Z,2.50
2022-11-08T19:55:23.916Z,3.53
2022-11-08T19:57:50.822Z,3.33
2022-11-08T20:00:18.331Z,2.90
2022-11-08T20:02:45.226Z,2.65
2022-11-08T20:05:12.440Z,2.63
2022-11-08T20:07:40.595Z,2.88
2022-11-08T20:10:08.552Z,3.35
2022-11-08T20:12:35.453Z,2.92
2022-11-08T20:15:02.237Z,2.67
2022-11-08T20:17:28.999Z,2.40
2022-11-08T20:19:55.760Z,2.38
2022-11-08T20:22:22.562Z,2.40
2022-11-08T20:24:50.705Z,2.38
2022-11-08T20:27:17.495Z,2.83
2022-11-08T20:29:44.244Z,2.90
2022-11-08T20:32:11.464Z,3.05
2022-11-08T20:34:38.632Z,2.55
2022-11-08T20:37:05.608Z,2.83
2022-11-08T20:39:33.798Z,2.80
2022-11-08T20:42:01.942Z,2.45
2022-11-08T20:44:28.810Z,2.60
2022-11-08T20:46:55.595Z,3.40
2022-11-08T20:49:22.679Z,2.42
2022-11-08T20:51:49.830Z,2.45
2022-11-08T20:54:16.734Z,2.35
2022-11-08T20:56:43.519Z,2.35
2022-11-08T20:59:12.669Z,2.28
2022-11-08T21:01:39.606Z,2.70
2022-11-08T21:04:06.543Z,2.40
2022-11-08T21:06:36.454Z,3.03
2022-11-08T21:09:27.814Z,2.28
2022-11-08T21:11:51.835Z,2.60
2022-11-08T21:14:20.072Z,2.40
2022-11-08T21:17:19.672Z,2.63
2022-11-08T21:19:33.886Z,1.83
2022-11-08T21:22:15.484Z,2.55
2022-11-08T21:24:43.127Z,2.08
2022-11-08T21:27:10.754Z,2.20
2022-11-08T21:29:39.214Z,2.28
2022-11-08T21:32:06.835Z,2.67
2022-11-08T21:34:33.787Z,2.40
2022-11-08T21:37:00.777Z,2.72
2022-11-08T21:39:27.713Z,2.20
2022-11-08T21:41:54.633Z,2.22
2022-11-08T21:44:21.490Z,2.42
2022-11-08T21:46:50.230Z,2.42
2022-11-08T21:49:17.088Z,1.95
2022-11-08T21:51:43.909Z,2.33
2022-11-08T21:54:10.779Z,2.90
2022-11-08T21:56:38.869Z,3.10
2022-11-08T21:59:05.790Z,2.10
2022-11-08T22:01:32.947Z,2.55
2022-11-08T22:04:01.221Z,2.83
2022-11-08T22:06:28.938Z,2.60
2022-11-08T22:08:56.050Z,2.47
2022-11-08T22:11:23.085Z,2.60
2022-11-08T22:13:49.952Z,2.72
2022-11-08T22:16:16.852Z,2.72
2022-11-08T22:19:04.117Z,2.42
2022-11-08T22:21:37.749Z,2.83
2022-11-08T22:24:04.652Z,2.22
2022-11-08T22:26:31.455Z,2.28
2022-11-08T22:28:58.267Z,2.15
2022-11-08T22:31:25.660Z,2.53
2022-11-08T22:33:52.803Z,2.40
2022-11-08T22:36:19.762Z,2.20
2022-11-08T22:38:48.169Z,2.22
2022-11-08T22:41:16.211Z,2.70
2022-11-08T22:43:43.446Z,2.00
2022-11-08T22:46:10.615Z,2.45
2022-11-08T22:48:37.602Z,2.97
2022-11-08T22:51:04.561Z,2.35
2022-11-08T22:53:31.655Z,2.60
2022-11-08T22:56:00.981Z,2.30
2022-11-08T22:58:27.896Z,2.50
2022-11-08T23:00:54.766Z,2.55
2022-11-08T23:03:21.880Z,3.20
2022-11-08T23:05:49.729Z,2.20
2022-11-08T23:08:16.602Z,2.92
2022-11-08T23:11:02.364Z,2.83
2022-11-08T23:13:49.169Z,2.45
2022-11-08T23:16:19.126Z,2.75
2022-11-08T23:19:05.919Z,2.72
2022-11-08T23:21:52.367Z,2.65
2022-11-08T23:24:22.002Z,2.15
2022-11-08T23:27:07.181Z,2.13
2022-11-08T23:29:53.736Z,2.88
2022-11-08T23:32:20.544Z,2.33
2022-11-08T23:34:47.409Z,2.60
2022-11-08T23:37:14.447Z,2.85
2022-11-08T23:39:59.713Z,3.17
2022-11-08T23:42:44.910Z,2.40
2022-11-08T23:45:13.066Z,2.83
2022-11-08T23:47:39.888Z,2.55
2022-11-08T23:50:07.523Z,2.75
2022-11-08T23:52:34.326Z,2.95
2022-11-08T23:55:01.168Z,2.58
2022-11-08T23:57:27.840Z,2.08
2022-11-08T23:59:54.603Z,3.08
